createdAt,value
2023-05-21T00:00:02.742Z,94.80
2023-05-21T00:02:41.495Z,94.53
2023-05-21T00:05:14.810Z,94.24
2023-05-21T00:07:44.204Z,94.06
2023-05-21T00:10:12.920Z,94.62
2023-05-21T00:12:42.016Z,94.20
2023-05-21T00:15:11.471Z,94.12
2023-05-21T00:17:40.585Z,93.70
2023-05-21T00:20:10.142Z,93.96
2023-05-21T00:22:40.460Z,93.43
2023-05-21T00:25:09.552Z,93.69
2023-05-21T00:27:38.335Z,93.53
2023-05-21T00:30:08.830Z,93.42
2023-05-21T00:32:38.894Z,93.65
2023-05-21T00:35:08.599Z,93.44
2023-05-21T00:37:37.150Z,93.54
2023-05-21T00:40:09.251Z,93.92
2023-05-21T00:42:40.022Z,93.60
2023-05-21T00:45:10.558Z,93.62
2023-05-21T00:47:39.319Z,93.15
2023-05-21T00:50:10.001Z,93.92
2023-05-21T00:52:42.168Z,93.65
2023-05-21T00:55:13.298Z,93.89
2023-05-21T00:57:42.619Z,93.74
2023-05-21T01:00:12.336Z,93.52
2023-05-21T01:02:41.102Z,93.30
2023-05-21T01:05:10.994Z,93.43
2023-05-21T01:07:41.730Z,94.17
2023-05-21T01:10:13.176Z,93.72
2023-05-21T01:12:44.277Z,94.15
2023-05-21T01:15:14.286Z,94.51
2023-05-21T01:17:46.256Z,94.51
2023-05-21T01:20:18.346Z,94.65
2023-05-21T01:22:54.203Z,94.56
2023-05-21T01:25:24.230Z,93.55
2023-05-21T01:27:54.289Z,93.82
2023-05-21T01:30:23.792Z,94.58
2023-05-21T01:32:58.084Z,94.35
2023-05-21T01:35:30.020Z,95.07
2023-05-21T01:38:05.097Z,94.43
2023-05-21T01:40:38.442Z,94.46
2023-05-21T01:43:08.218Z,94.39
2023-05-21T01:45:38.203Z,94.02
2023-05-21T01:48:09.149Z,94.09
2023-05-21T01:50:39.045Z,93.49
2023-05-21T01:53:09.033Z,94.03
2023-05-21T01:55:42.225Z,93.96
2023-05-21T01:58:11.094Z,93.36
2023-05-21T02:00:40.093Z,93.93
2023-05-21T02:03:09.069Z,93.85
2023-05-21T02:05:37.862Z,94.06
2023-05-21T02:08:08.777Z,93.90
2023-05-21T02:10:37.219Z,94.10
2023-05-21T02:13:06.048Z,93.67
2023-05-21T02:15:35.448Z,93.77
2023-05-21T02:18:04.810Z,93.54
2023-05-21T02:20:53.126Z,94.25
2023-05-21T02:23:23.404Z,94.05
2023-05-21T02:25:52.070Z,93.57
2023-05-21T02:28:21.460Z,92.82
2023-05-21T02:30:49.946Z,92.98
2023-05-21T02:33:19.923Z,92.87
2023-05-21T02:35:49.046Z,92.73
2023-05-21T02:38:19.656Z,93.74
2023-05-21T02:40:50.002Z,93.66
2023-05-21T02:43:18.895Z,92.72
2023-05-21T02:45:48.506Z,93.39
2023-05-21T02:48:17.363Z,93.21
2023-05-21T02:50:46.194Z,93.70
2023-05-21T02:53:14.780Z,92.20
2023-05-21T02:55:43.222Z,92.75
2023-05-21T02:58:15.066Z,91.63
2023-05-21T03:00:44.070Z,91.62
2023-05-21T03:03:12.985Z,91.72
2023-05-21T03:05:44.128Z,91.37
2023-05-21T03:08:13.881Z,91.43
2023-05-21T03:10:42.296Z,90.40
2023-05-21T03:13:12.311Z,90.59
2023-05-21T03:15:40.849Z,90.86
2023-05-21T03:20:43.870Z,89.83
2023-05-21T03:23:16.655Z,90.05
2023-05-21T03:25:47.326Z,89.60
2023-05-21T03:28:18.556Z,88.81
2023-05-21T03:30:52.206Z,88.67
2023-05-21T03:33:55.760Z,88.78
2023-05-21T03:36:27.702Z,89.05
2023-05-21T03:38:58.409Z,88.26
2023-05-21T03:41:27.331Z,88.56
2023-05-21T03:44:03.192Z,88.74
2023-05-21T03:46:38.998Z,89.58
2023-05-21T03:49:14.458Z,89.75
2023-05-21T03:51:43.135Z,89.04
2023-05-21T03:54:15.160Z,88.21
2023-05-21T03:56:44.304Z,88.92
2023-05-21T03:59:14.956Z,88.49
2023-05-21T04:01:45.748Z,88.67
2023-05-21T04:04:16.789Z,89.22
2023-05-21T04:06:45.781Z,88.78
2023-05-21T04:09:15.055Z,88.89
2023-05-21T04:11:44.071Z,88.52
2023-05-21T04:14:12.890Z,87.67
2023-05-21T04:16:44.261Z,88.04
2023-05-21T04:19:13.473Z,88.13
2023-05-21T04:21:42.216Z,88.31
2023-05-21T04:24:11.967Z,88.92
2023-05-21T04:27:03.282Z,88.17
2023-05-21T04:29:34.504Z,87.41
2023-05-21T04:32:05.161Z,86.39
2023-05-21T04:34:34.071Z,86.91
2023-05-21T04:37:03.831Z,86.64
2023-05-21T04:39:32.717Z,86.82
2023-05-21T04:42:18.576Z,86.29
2023-05-21T04:44:48.862Z,85.66
2023-05-21T04:47:19.227Z,86.12
2023-05-21T04:49:50.975Z,85.69
2023-05-21T04:52:19.554Z,85.63
2023-05-21T04:54:47.999Z,86.03
2023-05-21T04:57:18.484Z,83.86
2023-05-21T04:59:47.876Z,83.81
2023-05-21T05:02:18.766Z,83.02
2023-05-21T05:04:47.682Z,81.75
2023-05-21T05:07:17.123Z,80.90
2023-05-21T05:09:45.911Z,80.64
2023-05-21T05:12:14.544Z,81.33
2023-05-21T05:14:43.213Z,80.78
2023-05-21T05:17:15.975Z,79.27
2023-05-21T05:19:46.759Z,80.12
2023-05-21T05:22:15.700Z,78.92
2023-05-21T05:24:44.218Z,78.60
2023-05-21T05:27:12.655Z,78.70
2023-05-21T05:29:41.203Z,76.51
2023-05-21T05:32:10.280Z,77.04
2023-05-21T05:34:38.944Z,77.59
2023-05-21T05:37:08.949Z,77.72
2023-05-21T05:39:37.576Z,77.32
2023-05-21T05:42:06.998Z,76.44
2023-05-21T05:44:35.624Z,75.67
2023-05-21T05:47:09.261Z,75.75
2023-05-21T05:49:37.923Z,76.06
2023-05-21T05:52:08.533Z,76.24
2023-05-21T05:54:38.160Z,76.39
2023-05-21T05:57:07.236Z,75.47
2023-05-21T05:59:38.539Z,75.48
2023-05-21T06:02:07.147Z,75.01
2023-05-21T06:04:35.689Z,77.30
2023-05-21T06:07:05.053Z,76.30
2023-05-21T06:09:34.910Z,77.43
2023-05-21T06:12:03.325Z,76.81
2023-05-21T06:14:31.796Z,76.88
2023-05-21T06:17:00.486Z,76.64
2023-05-21T06:19:29.519Z,75.90
2023-05-21T06:21:58.460Z,76.49
2023-05-21T06:24:27.565Z,74.97
2023-05-21T06:26:57.448Z,74.83
2023-05-21T06:29:26.546Z,73.08
2023-05-21T06:31:55.536Z,73.47
2023-05-21T06:34:28.797Z,72.68
2023-05-21T06:36:57.324Z,71.82
2023-05-21T06:39:27.233Z,70.45
2023-05-21T06:41:58.226Z,70.42
2023-05-21T06:44:47.230Z,67.57
2023-05-21T06:47:21.792Z,66.58
2023-05-21T06:49:50.874Z,66.58
2023-05-21T06:52:19.334Z,67.78
2023-05-21T06:54:50.942Z,69.11
2023-05-21T06:57:21.848Z,69.63
2023-05-21T06:59:50.209Z,69.96
2023-05-21T07:02:19.017Z,69.91
2023-05-21T07:04:47.934Z,70.04
2023-05-21T07:07:16.801Z,68.25
2023-05-21T07:09:48.609Z,68.13
2023-05-21T07:12:18.475Z,68.05
2023-05-21T07:14:48.632Z,65.45
2023-05-21T07:17:17.489Z,65.13
2023-05-21T07:19:46.200Z,63.79
2023-05-21T07:22:15.767Z,63.64
2023-05-21T07:24:44.612Z,64.83
2023-05-21T07:27:24.679Z,64.56
2023-05-21T07:29:56.925Z,63.38
2023-05-21T07:32:26.946Z,62.81
2023-05-21T07:34:55.834Z,62.16
2023-05-21T07:37:28.023Z,64.70
2023-05-21T07:39:58.758Z,64.92
2023-05-21T07:42:27.413Z,65.24
2023-05-21T07:44:59.503Z,66.11
2023-05-21T07:47:29.569Z,65.60
2023-05-21T07:49:59.893Z,65.07
2023-05-21T07:52:28.507Z,65.28
2023-05-21T07:54:57.017Z,64.11
2023-05-21T07:57:28.084Z,64.53
2023-05-21T08:00:05.235Z,62.87
2023-05-21T08:02:44.353Z,62.73
2023-05-21T08:05:16.510Z,62.96
2023-05-21T08:07:46.400Z,61.94
2023-05-21T08:10:16.694Z,60.35
2023-05-21T08:12:48.827Z,60.54
2023-05-21T08:15:18.820Z,60.56
2023-05-21T08:17:47.669Z,60.57
2023-05-21T08:20:17.298Z,59.74
2023-05-21T08:22:48.406Z,60.11
2023-05-21T08:25:17.906Z,59.23
2023-05-21T08:27:46.402Z,59.32
2023-05-21T08:30:15.863Z,57.98
2023-05-21T08:32:46.054Z,56.59
2023-05-21T08:35:17.665Z,57.18
2023-05-21T08:37:59.049Z,56.73
2023-05-21T08:40:37.813Z,54.87
2023-05-21T08:43:06.600Z,55.72
2023-05-21T08:45:46.902Z,55.81
2023-05-21T08:48:18.129Z,55.21
2023-05-21T08:50:46.756Z,55.44
2023-05-21T08:53:28.808Z,55.69
2023-05-21T08:55:58.906Z,55.30
2023-05-21T08:58:50.466Z,55.71
2023-05-21T09:01:24.748Z,55.91
2023-05-21T09:04:19.828Z,54.60
2023-05-21T09:06:52.656Z,53.55
2023-05-21T09:09:34.460Z,53.25
2023-05-21T09:12:03.621Z,54.57
2023-05-21T09:14:32.461Z,54.98
2023-05-21T09:17:22.263Z,54.72
2023-05-21T09:20:11.078Z,53.90
2023-05-21T09:22:43.857Z,54.00
2023-05-21T09:25:16.525Z,54.96
2023-05-21T09:27:45.786Z,55.69
2023-05-21T09:30:16.023Z,55.43
2023-05-21T09:32:45.779Z,55.36
2023-05-21T09:35:16.747Z,55.05
2023-05-21T09:37:46.154Z,54.77
2023-05-21T09:40:15.703Z,54.80
2023-05-21T09:42:48.192Z,53.66
2023-05-21T09:45:19.991Z,53.25
2023-05-21T09:47:50.558Z,52.22
2023-05-21T09:50:24.810Z,51.63
2023-05-21T09:52:54.014Z,51.21
2023-05-21T09:55:24.512Z,50.54
2023-05-21T09:57:55.396Z,50.33
2023-05-21T10:00:27.553Z,49.27
2023-05-21T10:02:57.123Z,47.80
2023-05-21T10:05:28.725Z,48.24
2023-05-21T10:08:02.145Z,46.42
2023-05-21T10:10:32.712Z,46.67
2023-05-21T10:13:02.814Z,47.21
2023-05-21T10:15:33.516Z,48.27
2023-05-21T10:18:03.201Z,47.85
2023-05-21T10:20:33.684Z,48.24
2023-05-21T10:23:06.564Z,48.58
2023-05-21T10:25:37.381Z,48.72
2023-05-21T10:28:07.000Z,48.76
2023-05-21T10:30:36.279Z,48.25
2023-05-21T10:33:06.011Z,48.61
2023-05-21T10:35:36.362Z,47.21
2023-05-21T10:38:06.044Z,47.15
2023-05-21T10:40:36.288Z,47.25
2023-05-21T10:43:32.950Z,45.73
2023-05-21T10:46:18.310Z,44.89
2023-05-21T10:48:58.808Z,44.04
2023-05-21T10:51:30.701Z,45.43
2023-05-21T10:54:15.712Z,44.39
2023-05-21T10:56:48.381Z,45.35
2023-05-21T10:59:22.411Z,46.27
2023-05-21T11:01:53.084Z,47.67
2023-05-21T11:04:24.894Z,48.31
2023-05-21T11:06:55.253Z,46.40
2023-05-21T11:09:24.113Z,46.18
2023-05-21T11:11:55.124Z,45.03
2023-05-21T11:14:36.416Z,46.18
2023-05-21T11:17:06.031Z,47.24
2023-05-21T11:19:37.550Z,47.39
2023-05-21T11:22:23.983Z,46.06
2023-05-21T11:24:53.774Z,45.34
2023-05-21T11:27:34.629Z,45.55
2023-05-21T11:30:07.024Z,44.78
2023-05-21T11:32:38.992Z,44.65
2023-05-21T11:35:09.107Z,45.63
2023-05-21T11:37:41.858Z,46.32
2023-05-21T11:40:26.361Z,46.04
2023-05-21T11:42:55.035Z,47.47
2023-05-21T11:45:24.844Z,47.36
2023-05-21T11:47:53.993Z,46.18
2023-05-21T11:50:22.493Z,45.93
2023-05-21T11:52:53.650Z,45.97
2023-05-21T11:55:26.251Z,46.08
2023-05-21T11:57:58.425Z,45.41
2023-05-21T12:00:27.659Z,45.93
2023-05-21T12:02:59.598Z,46.47
2023-05-21T12:05:28.716Z,47.33
2023-05-21T12:08:02.589Z,47.21
2023-05-21T12:10:31.242Z,46.48
2023-05-21T12:12:59.776Z,45.67
2023-05-21T12:15:28.573Z,46.02
2023-05-21T12:17:57.946Z,46.33
2023-05-21T12:20:29.041Z,47.10
2023-05-21T12:23:00.528Z,47.39
2023-05-21T12:25:32.208Z,47.91
2023-05-21T12:28:02.864Z,48.18
2023-05-21T12:30:31.690Z,47.58
2023-05-21T12:33:02.323Z,47.04
2023-05-21T12:35:34.970Z,46.52
2023-05-21T12:38:04.316Z,46.64
2023-05-21T12:40:41.115Z,47.60
2023-05-21T12:43:09.900Z,48.15
2023-05-21T12:45:40.731Z,48.55
2023-05-21T12:48:09.727Z,48.95
2023-05-21T12:50:41.814Z,49.54
2023-05-21T12:53:11.545Z,50.39
2023-05-21T12:55:41.681Z,50.72
2023-05-21T12:58:12.075Z,50.86
2023-05-21T13:00:43.266Z,51.09
2023-05-21T13:03:12.120Z,50.99
2023-05-21T13:05:41.738Z,50.35
2023-05-21T13:08:10.851Z,49.93
2023-05-21T13:10:39.832Z,49.56
2023-05-21T13:13:10.241Z,50.60
2023-05-21T13:15:38.825Z,50.09
2023-05-21T13:18:07.364Z,49.72
2023-05-21T13:20:36.136Z,49.92
2023-05-21T13:23:06.652Z,49.87
2023-05-21T13:25:36.750Z,49.83
2023-05-21T13:28:06.943Z,49.83
2023-05-21T13:30:37.678Z,49.85
2023-05-21T13:33:07.767Z,50.74
2023-05-21T13:35:36.569Z,51.93
2023-05-21T13:38:07.647Z,52.81
2023-05-21T13:40:38.738Z,52.78
2023-05-21T13:43:07.586Z,53.56
2023-05-21T13:45:37.603Z,52.89
2023-05-21T13:48:07.002Z,53.28
2023-05-21T13:50:38.857Z,52.95
2023-05-21T13:53:07.598Z,52.57
2023-05-21T13:55:38.949Z,50.98
2023-05-21T13:58:07.646Z,50.81
2023-05-21T14:00:37.840Z,49.04
2023-05-21T14:03:09.997Z,48.42
2023-05-21T14:05:38.665Z,47.74
2023-05-21T14:08:08.286Z,47.88
2023-05-21T14:10:37.055Z,48.18
2023-05-21T14:13:18.226Z,48.93
2023-05-21T14:15:52.725Z,49.34
2023-05-21T14:18:21.372Z,49.02
2023-05-21T14:20:50.045Z,49.81
2023-05-21T14:23:18.839Z,49.57
2023-05-21T14:25:47.483Z,49.57
2023-05-21T14:28:16.460Z,50.76
2023-05-21T14:30:45.870Z,51.68
2023-05-21T14:33:16.364Z,51.37
2023-05-21T14:35:48.045Z,51.28
2023-05-21T14:38:21.842Z,50.86
2023-05-21T14:40:55.779Z,50.29
2023-05-21T14:43:27.053Z,51.27
2023-05-21T14:46:04.286Z,52.04
2023-05-21T14:48:39.079Z,52.96
2023-05-21T14:51:11.498Z,51.48
2023-05-21T14:53:40.123Z,51.78
2023-05-21T14:56:08.777Z,52.11
2023-05-21T14:58:37.663Z,52.43
2023-05-21T15:01:06.605Z,51.91
2023-05-21T15:03:36.751Z,50.93
2023-05-21T15:06:05.560Z,50.58
2023-05-21T15:08:34.137Z,49.93
2023-05-21T15:11:03.060Z,50.37
2023-05-21T15:13:31.745Z,49.36
2023-05-21T15:16:00.253Z,49.24
2023-05-21T15:18:29.790Z,50.56
2023-05-21T15:20:59.862Z,50.68
2023-05-21T15:23:28.693Z,50.17
2023-05-21T15:25:57.420Z,49.85
2023-05-21T15:28:28.643Z,50.70
2023-05-21T15:31:00.195Z,51.50
2023-05-21T15:33:28.682Z,50.92
2023-05-21T15:35:57.531Z,50.60
2023-05-21T15:38:27.769Z,50.24
2023-05-21T15:40:56.882Z,50.54
2023-05-21T15:43:25.307Z,50.10
2023-05-21T15:45:53.856Z,50.65
2023-05-21T15:48:23.201Z,50.61
2023-05-21T15:50:52.079Z,50.71
2023-05-21T15:53:20.702Z,51.74
2023-05-21T15:55:50.740Z,51.26
2023-05-21T15:58:19.239Z,51.70
2023-05-21T16:00:48.149Z,52.15
2023-05-21T16:03:16.980Z,51.60
2023-05-21T16:05:45.691Z,51.87
2023-05-21T16:08:14.283Z,51.73
2023-05-21T16:10:42.960Z,51.32
2023-05-21T16:13:14.549Z,51.41
2023-05-21T16:15:43.162Z,51.86
2023-05-21T16:18:11.765Z,51.53
2023-05-21T16:20:41.074Z,52.10
2023-05-21T16:23:09.525Z,52.20
2023-05-21T16:25:38.346Z,52.28
2023-05-21T16:28:07.191Z,52.65
2023-05-21T16:30:37.160Z,53.24
2023-05-21T16:33:06.057Z,53.46
2023-05-21T16:35:34.933Z,54.32
2023-05-21T16:38:03.724Z,54.64
2023-05-21T16:40:32.652Z,54.98
2023-05-21T16:43:02.143Z,54.82
2023-05-21T16:45:39.903Z,55.56
2023-05-21T16:48:09.208Z,54.94
2023-05-21T16:50:38.070Z,55.37
2023-05-21T16:53:07.836Z,55.72
2023-05-21T16:55:38.004Z,55.73
2023-05-21T16:58:09.366Z,56.30
2023-05-21T17:00:42.899Z,56.61
2023-05-21T17:03:12.035Z,56.83
2023-05-21T17:05:40.597Z,57.46
2023-05-21T17:08:09.569Z,57.72
2023-05-21T17:10:38.035Z,57.76
2023-05-21T17:13:20.758Z,58.69
2023-05-21T17:15:52.693Z,58.65
2023-05-21T17:18:21.284Z,58.49
2023-05-21T17:20:50.210Z,58.67
2023-05-21T17:23:19.136Z,58.51
2023-05-21T17:25:47.815Z,59.51
2023-05-21T17:28:16.382Z,58.92
2023-05-21T17:30:46.021Z,58.88
2023-05-21T17:33:16.776Z,59.92
2023-05-21T17:35:45.739Z,61.12
2023-05-21T17:38:15.991Z,60.78
2023-05-21T17:40:44.675Z,60.82
2023-05-21T17:43:13.230Z,60.18
2023-05-21T17:45:44.596Z,60.57
2023-05-21T17:48:13.618Z,61.08
2023-05-21T17:50:43.476Z,59.82
2023-05-21T17:53:14.838Z,60.71
2023-05-21T17:55:43.302Z,61.97
2023-05-21T17:58:11.704Z,62.97
2023-05-21T18:00:40.797Z,61.00
2023-05-21T18:03:11.639Z,62.00
2023-05-21T18:05:40.337Z,61.67
2023-05-21T18:08:10.403Z,60.74
2023-05-21T18:10:38.953Z,60.97
2023-05-21T18:13:07.592Z,60.43
2023-05-21T18:15:36.552Z,61.44
2023-05-21T18:18:05.359Z,62.51
2023-05-21T18:20:34.558Z,62.31
2023-05-21T18:23:03.355Z,62.24
2023-05-21T18:25:33.536Z,64.63
2023-05-21T18:28:02.009Z,63.60
2023-05-21T18:30:30.637Z,64.47
2023-05-21T18:32:59.142Z,64.78
2023-05-21T18:35:28.268Z,64.93
2023-05-21T18:37:57.191Z,65.09
2023-05-21T18:40:30.479Z,65.56
2023-05-21T18:43:00.924Z,65.79
2023-05-21T18:45:30.148Z,65.89
2023-05-21T18:47:59.105Z,65.76
2023-05-21T18:50:27.673Z,66.99
2023-05-21T18:52:56.302Z,67.85
2023-05-21T18:55:24.812Z,69.12
2023-05-21T18:57:53.473Z,67.87
2023-05-21T19:00:23.778Z,68.12
2023-05-21T19:02:52.914Z,68.18
2023-05-21T19:05:21.774Z,67.86
2023-05-21T19:07:50.549Z,67.71
2023-05-21T19:10:19.811Z,68.14
2023-05-21T19:12:49.332Z,68.18
2023-05-21T19:15:20.026Z,67.94
2023-05-21T19:17:50.029Z,68.55
2023-05-21T19:20:25.053Z,69.14
2023-05-21T19:22:54.138Z,69.43
2023-05-21T19:25:22.840Z,70.36
2023-05-21T19:27:52.932Z,70.75
2023-05-21T19:30:21.591Z,69.64
2023-05-21T19:32:51.488Z,69.85
2023-05-21T19:35:21.314Z,69.49
2023-05-21T19:37:50.096Z,70.14
2023-05-21T19:40:21.317Z,70.58
2023-05-21T19:42:50.185Z,70.46
2023-05-21T19:45:18.568Z,70.28
2023-05-21T19:47:47.362Z,72.79
2023-05-21T19:50:18.168Z,72.95
2023-05-21T19:52:46.787Z,75.33
2023-05-21T19:55:20.510Z,76.10
2023-05-21T19:57:50.326Z,76.39
2023-05-21T20:00:19.391Z,74.34
2023-05-21T20:02:49.672Z,74.37
2023-05-21T20:05:20.147Z,74.11
2023-05-21T20:07:48.775Z,73.68
2023-05-21T20:10:17.440Z,73.06
2023-05-21T20:12:46.164Z,73.52
2023-05-21T20:15:14.661Z,73.61
2023-05-21T20:17:44.251Z,73.41
2023-05-21T20:20:34.781Z,73.71
2023-05-21T20:23:06.985Z,75.53
2023-05-21T20:25:35.752Z,74.55
2023-05-21T20:28:07.103Z,76.81
2023-05-21T20:30:37.108Z,78.80
2023-05-21T20:33:08.494Z,77.41
2023-05-21T20:35:37.628Z,78.84
2023-05-21T20:38:07.824Z,78.77
2023-05-21T20:40:36.515Z,81.77
2023-05-21T20:43:05.534Z,83.29
2023-05-21T20:45:36.335Z,83.33
2023-05-21T20:48:05.851Z,82.22
2023-05-21T20:50:37.687Z,84.90
2023-05-21T20:53:07.966Z,84.66
2023-05-21T20:55:36.546Z,84.69
2023-05-21T20:58:06.010Z,85.51
2023-05-21T21:00:35.108Z,84.35
2023-05-21T21:03:04.132Z,84.50
2023-05-21T21:05:32.825Z,85.36
2023-05-21T21:08:02.638Z,85.30
2023-05-21T21:10:33.965Z,85.98
2023-05-21T21:13:03.539Z,86.55
2023-05-21T21:15:32.000Z,86.90
2023-05-21T21:18:04.192Z,86.54
2023-05-21T21:20:32.949Z,87.50
2023-05-21T21:23:01.582Z,88.95
2023-05-21T21:25:33.736Z,88.93
2023-05-21T21:28:03.716Z,89.20
2023-05-21T21:30:32.148Z,89.71
2023-05-21T21:33:01.218Z,90.51
2023-05-21T21:35:30.316Z,90.44
2023-05-21T21:37:59.100Z,90.57
2023-05-21T21:40:28.240Z,91.34
2023-05-21T21:42:56.761Z,91.33
2023-05-21T21:45:26.713Z,91.45
2023-05-21T21:47:55.550Z,91.29
2023-05-21T21:50:24.155Z,91.20
2023-05-21T21:52:55.957Z,92.07
2023-05-21T21:55:24.771Z,91.95
2023-05-21T21:57:53.384Z,91.93
2023-05-21T22:00:26.742Z,91.91
2023-05-21T22:02:56.934Z,91.72
2023-05-21T22:05:25.474Z,90.84
2023-05-21T22:07:56.752Z,91.20
2023-05-21T22:10:25.980Z,91.27
2023-05-21T22:12:54.556Z,91.03
2023-05-21T22:15:25.173Z,90.22
2023-05-21T22:17:53.967Z,90.58
2023-05-21T22:20:26.129Z,90.68
2023-05-21T22:22:55.512Z,89.13
2023-05-21T22:25:24.128Z,89.48
2023-05-21T22:27:54.903Z,89.13
2023-05-21T22:30:23.369Z,88.21
2023-05-21T22:32:51.989Z,87.41
2023-05-21T22:35:20.857Z,86.10
2023-05-21T22:37:51.192Z,86.16
2023-05-21T22:40:19.950Z,86.05
2023-05-21T22:42:49.485Z,85.50
2023-05-21T22:45:19.073Z,84.42
2023-05-21T22:47:48.280Z,83.70
2023-05-21T22:50:17.015Z,83.49
2023-05-21T22:52:45.708Z,83.50
2023-05-21T22:55:18.726Z,83.39
2023-05-21T22:57:48.942Z,82.56
2023-05-21T23:00:19.290Z,81.54
2023-05-21T23:02:48.246Z,81.18
2023-05-21T23:05:17.263Z,81.47
2023-05-21T23:07:45.749Z,83.69
2023-05-21T23:10:14.628Z,85.56
2023-05-21T23:12:44.620Z,86.68
2023-05-21T23:15:13.554Z,86.83
2023-05-21T23:17:44.171Z,86.23
2023-05-21T23:20:13.276Z,87.32
2023-05-21T23:22:41.819Z,88.25
2023-05-21T23:25:11.270Z,87.99
2023-05-21T23:27:39.656Z,88.33
2023-05-21T23:30:11.740Z,88.78
2023-05-21T23:32:40.675Z,90.02
2023-05-21T23:35:14.501Z,89.90
2023-05-21T23:37:43.225Z,90.55
2023-05-21T23:40:13.027Z,90.12
2023-05-21T23:42:41.578Z,90.68
2023-05-21T23:45:12.688Z,90.38
2023-05-21T23:47:42.350Z,90.91
2023-05-21T23:50:11.278Z,89.99
2023-05-21T23:52:41.641Z,89.38
2023-05-21T23:55:12.775Z,89.12
2023-05-21T23:57:41.466Z,89.30
